createdAt,value
2023-04-02T00:00:18.521Z,100.0
2023-04-02T00:05:18.566Z,100.0
2023-04-02T00:10:18.529Z,100.0
2023-04-02T00:15:18.535Z,100.0
2023-04-02T00:20:18.536Z,100.0
2023-04-02T00:25:18.551Z,100.0
2023-04-02T00:30:18.557Z,100.0
2023-04-02T00:35:18.585Z,100.0
2023-04-02T00:40:18.547Z,100.0
2023-04-02T00:45:18.552Z,100.0
2023-04-02T00:50:18.574Z,100.0
2023-04-02T00:55:18.569Z,100.0
2023-04-02T01:00:18.564Z,100.0
2023-04-02T01:05:18.615Z,99.4
2023-04-02T01:10:18.560Z,99.4
2023-04-02T01:15:18.592Z,99.2
2023-04-02T01:20:18.572Z,98.8
2023-04-02T01:25:18.572Z,98.7
2023-04-02T01:30:18.589Z,98.1
2023-04-02T01:35:18.608Z,98.1
2023-04-02T01:40:18.571Z,98.0
2023-04-02T01:45:18.589Z,98.1
2023-04-02T01:50:18.584Z,98.6
2023-04-02T01:55:18.595Z,98.8
2023-04-02T02:00:18.590Z,98.7
2023-04-02T02:05:18.623Z,98.5
2023-04-02T02:10:18.593Z,99.0
2023-04-02T02:15:18.601Z,98.7
2023-04-02T02:20:18.614Z,98.8
2023-04-02T02:25:18.605Z,98.9
2023-04-02T02:30:18.618Z,98.6
2023-04-02T02:35:18.668Z,98.6
2023-04-02T02:40:18.617Z,98.7
2023-04-02T02:45:18.615Z,98.6
2023-04-02T02:50:18.615Z,98.5
2023-04-02T02:55:18.639Z,98.3
2023-04-02T03:00:18.705Z,98.2
2023-04-02T03:05:18.659Z,97.8
2023-04-02T03:10:18.637Z,97.9
2023-04-02T03:15:18.630Z,97.4
2023-04-02T03:20:18.657Z,96.0
2023-04-02T03:25:18.636Z,96.0
2023-04-02T03:30:18.639Z,95.6
2023-04-02T03:35:18.680Z,94.9
2023-04-02T03:40:18.656Z,94.2
2023-04-02T03:45:18.659Z,94.5
2023-04-02T03:50:18.649Z,94.3
2023-04-02T03:55:18.660Z,94.2
2023-04-02T04:00:18.688Z,92.7
2023-04-02T04:05:18.696Z,92.9
2023-04-02T04:10:18.675Z,92.8
2023-04-02T04:15:18.669Z,93.0
2023-04-02T04:20:18.669Z,92.9
2023-04-02T04:25:18.669Z,92.9
2023-04-02T04:30:18.684Z,92.5
2023-04-02T04:35:18.712Z,92.8
2023-04-02T04:40:18.677Z,93.1
2023-04-02T04:45:18.700Z,92.9
2023-04-02T04:50:18.686Z,92.4
2023-04-02T04:55:18.686Z,92.6
2023-04-02T05:00:18.693Z,91.9
2023-04-02T05:05:18.736Z,92.7
2023-04-02T05:10:18.704Z,91.9
2023-04-02T05:15:18.712Z,91.6
2023-04-02T05:20:18.709Z,92.2
2023-04-02T05:25:18.718Z,92.4
2023-04-02T05:30:20.134Z,91.4
2023-04-02T05:35:18.743Z,92.1
2023-04-02T05:40:18.714Z,92.2
2023-04-02T05:45:18.725Z,91.9
2023-04-02T05:50:18.717Z,92.2
2023-04-02T05:55:18.733Z,91.7
2023-04-02T06:00:18.725Z,91.3
2023-04-02T06:05:18.782Z,91.2
2023-04-02T06:10:18.738Z,91.2
2023-04-02T06:15:18.744Z,90.4
2023-04-02T06:20:18.729Z,91.1
2023-04-02T06:25:18.742Z,91.7
2023-04-02T06:30:18.742Z,90.5
2023-04-02T06:35:18.785Z,91.6
2023-04-02T06:40:18.757Z,91.6
2023-04-02T06:45:18.760Z,91.1
2023-04-02T06:50:18.759Z,90.2
2023-04-02T06:55:18.778Z,90.4
2023-04-02T07:00:18.779Z,90.2
2023-04-02T07:05:18.806Z,89.5
2023-04-02T07:10:18.771Z,89.5
2023-04-02T07:15:18.770Z,89.7
2023-04-02T07:20:18.795Z,89.1
2023-04-02T07:25:18.770Z,89.6
2023-04-02T07:30:18.761Z,89.8
2023-04-02T07:35:18.812Z,89.2
2023-04-02T07:40:18.777Z,89.8
2023-04-02T07:45:18.789Z,89.5
2023-04-02T07:50:18.783Z,88.9
2023-04-02T07:55:18.816Z,89.7
2023-04-02T08:00:18.786Z,89.6
2023-04-02T08:05:18.914Z,89.4
2023-04-02T08:10:18.795Z,89.1
2023-04-02T08:15:18.792Z,88.3
2023-04-02T08:20:18.821Z,88.1
2023-04-02T08:25:18.814Z,87.5
2023-04-02T08:30:18.802Z,86.1
2023-04-02T08:35:18.866Z,85.1
2023-04-02T08:40:18.862Z,85.0
2023-04-02T08:45:24.844Z,83.0
2023-04-02T08:50:18.854Z,82.3
2023-04-02T08:55:18.831Z,80.9
2023-04-02T09:00:18.826Z,81.1
2023-04-02T09:05:18.854Z,81.1
2023-04-02T09:10:18.845Z,80.2
2023-04-02T09:15:18.842Z,80.5
2023-04-02T09:20:18.832Z,81.3
2023-04-02T09:25:18.830Z,81.1
2023-04-02T09:30:18.840Z,82.4
2023-04-02T09:35:26.002Z,81.3
2023-04-02T09:40:18.843Z,80.7
2023-04-02T09:45:18.858Z,79.9
2023-04-02T09:50:18.860Z,78.2
2023-04-02T09:55:18.848Z,76.5
2023-04-02T10:00:30.492Z,78.3
2023-04-02T10:05:39.495Z,77.6
2023-04-02T10:10:18.868Z,76.1
2023-04-02T10:15:18.861Z,72.8
2023-04-02T10:20:18.873Z,72.9
2023-04-02T10:25:18.869Z,72.6
2023-04-02T10:30:18.879Z,74.3
2023-04-02T10:35:18.910Z,75.2
2023-04-02T10:40:18.890Z,75.3
2023-04-02T10:45:18.882Z,74.4
2023-04-02T10:50:18.890Z,73.9
2023-04-02T10:55:18.885Z,73.2
2023-04-02T11:00:18.893Z,73.9
2023-04-02T11:05:18.969Z,73.1
2023-04-02T11:10:18.902Z,72.4
2023-04-02T11:15:18.895Z,72.6
2023-04-02T11:20:19.266Z,71.3
2023-04-02T11:25:18.905Z,71.3
2023-04-02T11:30:18.922Z,71.4
2023-04-02T11:35:19.024Z,70.6
2023-04-02T11:40:18.943Z,69.0
2023-04-02T11:45:20.651Z,69.0
2023-04-02T11:50:18.923Z,68.3
2023-04-02T11:55:18.938Z,68.4
2023-04-02T12:00:18.924Z,68.5
2023-04-02T12:05:19.012Z,66.4
2023-04-02T12:10:18.924Z,69.8
2023-04-02T12:15:18.926Z,68.8
2023-04-02T12:20:18.953Z,70.3
2023-04-02T12:25:18.940Z,68.6
2023-04-02T12:30:18.948Z,65.4
2023-04-02T12:35:18.978Z,65.4
2023-04-02T12:40:18.961Z,65.6
2023-04-02T12:45:18.949Z,66.3
2023-04-02T12:50:18.945Z,67.1
2023-04-02T12:55:18.953Z,65.8
2023-04-02T13:00:18.950Z,62.5
2023-04-02T13:05:19.023Z,62.2
2023-04-02T13:10:18.967Z,63.3
2023-04-02T13:15:18.974Z,64.0
2023-04-02T13:20:18.972Z,59.6
2023-04-02T13:25:18.971Z,62.1
2023-04-02T13:30:18.980Z,61.2
2023-04-02T13:35:19.009Z,57.4
2023-04-02T13:40:18.984Z,60.3
2023-04-02T13:45:18.984Z,59.9
2023-04-02T13:50:18.991Z,59.2
2023-04-02T13:55:18.989Z,60.4
2023-04-02T14:00:18.994Z,59.0
2023-04-02T14:05:19.030Z,57.8
2023-04-02T14:10:19.003Z,56.7
2023-04-02T14:15:19.019Z,58.1
2023-04-02T14:20:19.003Z,57.6
2023-04-02T14:25:19.007Z,56.1
2023-04-02T14:30:19.014Z,55.5
2023-04-02T14:35:19.045Z,56.1
2023-04-02T14:40:19.011Z,57.1
2023-04-02T14:45:19.035Z,55.6
2023-04-02T14:50:19.016Z,56.2
2023-04-02T14:55:19.026Z,57.8
2023-04-02T15:00:19.036Z,59.5
2023-04-02T15:05:19.062Z,58.5
2023-04-02T15:10:19.034Z,57.1
2023-04-02T15:15:24.405Z,57.8
2023-04-02T15:20:19.056Z,55.5
2023-04-02T15:25:19.051Z,56.7
2023-04-02T15:30:19.059Z,56.6
2023-04-02T15:35:20.297Z,58.4
2023-04-02T15:40:19.049Z,58.8
2023-04-02T15:45:19.053Z,59.8
2023-04-02T15:50:19.055Z,61.6
2023-04-02T15:55:19.062Z,59.7
2023-04-02T16:00:19.067Z,56.8
2023-04-02T16:05:19.087Z,58.3
2023-04-02T16:10:27.387Z,56.4
2023-04-02T16:15:19.075Z,57.6
2023-04-02T16:21:54.264Z,59.1
2023-04-02T16:25:19.078Z,59.4
2023-04-02T16:30:19.084Z,58.5
2023-04-02T16:35:40.950Z,59.0
2023-04-02T16:40:19.115Z,60.6
2023-04-02T16:45:19.433Z,60.2
2023-04-02T16:50:19.117Z,61.2
2023-04-02T16:55:19.093Z,61.9
2023-04-02T17:00:19.105Z,60.7
2023-04-02T17:05:19.118Z,62.1
2023-04-02T17:10:19.133Z,62.1
2023-04-02T17:15:27.814Z,62.5
2023-04-02T17:20:19.103Z,64.1
2023-04-02T17:25:19.128Z,65.9
2023-04-02T17:30:19.133Z,66.0
2023-04-02T17:35:19.136Z,67.5
2023-04-02T17:40:19.209Z,66.0
2023-04-02T17:45:19.116Z,65.7
2023-04-02T17:50:19.129Z,66.5
2023-04-02T17:55:19.134Z,67.3
2023-04-02T18:00:19.136Z,68.8
2023-04-02T18:05:19.144Z,69.8
2023-04-02T18:10:19.169Z,70.4
2023-04-02T18:15:19.145Z,70.6
2023-04-02T18:20:19.164Z,71.1
2023-04-02T18:25:19.149Z,71.5
2023-04-02T18:35:19.165Z,72.4
2023-04-02T18:40:19.185Z,73.1
2023-04-02T18:45:19.161Z,73.5
2023-04-02T18:50:19.156Z,73.9
2023-04-02T18:55:19.183Z,74.0
2023-04-02T19:00:19.187Z,74.6
2023-04-02T19:05:20.338Z,75.1
2023-04-02T19:10:19.203Z,75.5
2023-04-02T19:15:19.179Z,75.9
2023-04-02T19:20:19.193Z,76.3
2023-04-02T19:25:19.183Z,76.6
2023-04-02T19:30:19.194Z,77.0
2023-04-02T19:35:19.193Z,77.2
2023-04-02T19:40:19.342Z,77.5
2023-04-02T19:43:16.593Z,77.6
2023-04-02T19:45:19.198Z,77.6
2023-04-02T19:50:19.207Z,77.9
2023-04-02T19:55:19.216Z,78.3
2023-04-02T20:00:19.193Z,78.5
2023-04-02T20:05:19.218Z,78.8
2023-04-02T20:15:19.207Z,78.0
2023-04-02T20:20:19.208Z,77.7
2023-04-02T20:25:19.223Z,77.5
2023-04-02T20:30:19.216Z,78.1
2023-04-02T20:35:19.221Z,78.5
2023-04-02T20:40:19.372Z,78.5
2023-04-02T20:45:19.252Z,78.7
2023-04-02T20:50:19.241Z,78.6
2023-04-02T20:55:19.229Z,79.1
2023-04-02T21:00:19.246Z,79.1
2023-04-02T21:05:19.244Z,79.3
2023-04-02T21:10:19.275Z,79.5
2023-04-02T21:15:19.254Z,79.6
2023-04-02T21:20:19.269Z,80.2
2023-04-02T21:25:19.251Z,80.0
2023-04-02T21:30:19.248Z,80.0
2023-04-02T21:35:19.261Z,79.8
2023-04-02T21:40:19.358Z,80.2
2023-04-02T21:45:19.252Z,80.4
2023-04-02T21:50:19.260Z,80.6
2023-04-02T21:55:19.258Z,80.9
2023-04-02T22:00:19.287Z,80.9
2023-04-02T22:05:19.276Z,80.9
2023-04-02T22:10:19.298Z,81.1
2023-04-02T22:15:19.284Z,81.3
2023-04-02T22:20:19.276Z,81.5
2023-04-02T22:25:19.281Z,81.7
2023-04-02T22:30:19.286Z,81.8
2023-04-02T22:35:19.281Z,82.3
2023-04-02T22:40:19.465Z,82.5
2023-04-02T22:45:19.285Z,82.6
2023-04-02T22:50:19.295Z,82.7
2023-04-02T22:55:19.307Z,83.1
2023-04-02T23:00:19.299Z,83.3
2023-04-02T23:05:19.324Z,83.2
2023-04-02T23:10:19.346Z,83.5
2023-04-02T23:11:11.474Z,83.7
2023-04-02T23:15:19.303Z,83.7
2023-04-02T23:20:19.319Z,84.1
2023-04-02T23:25:19.312Z,84.1
2023-04-02T23:30:19.310Z,84.2
2023-04-02T23:35:19.323Z,84.1
2023-04-02T23:40:19.461Z,83.9
2023-04-02T23:45:19.322Z,83.9
2023-04-02T23:50:19.326Z,83.7
2023-04-02T23:55:19.325Z,84.0
